Monday, September 16, 2019, 8:52 AM EDT
Back to Local

KCON, Concord, Concord Municipal Airport

Location: Concord, NH, United States Lat: 43.195
Local Time: 8:52 AM EDT (12:52 GMT) Lon: -71.501
Time Zone: US/Eastern Elev: 344 ft

Show me the last for .
Show Decoded

2019-09-16 07:51 METAR KCON 161151Z AUTO 29004KT 10SM CLR 13/07 A3009 RMK AO2 SLP188 T01330072
                 10167 20128 53013 =
2019-09-16 06:51 METAR KCON 161051Z AUTO 32009G15KT 10SM CLR 13/07 A3007 RMK AO2 SLP181 T01280072
                 $ =
2019-09-16 05:51 METAR KCON 160951Z AUTO 31006KT 10SM CLR 13/08 A3006 RMK AO2 SLP177 T01280083 $
                 =
2019-09-16 04:51 METAR KCON 160851Z AUTO 31008KT 10SM CLR 13/09 A3005 RMK AO2 SLP175 T01330094
                 56002 $ =
2019-09-16 03:51 METAR KCON 160751Z AUTO 33007KT 10SM CLR 14/10 A3005 RMK AO2 SLP175 T01390100 $
                 =
2019-09-16 02:51 METAR KCON 160651Z AUTO 33007KT 10SM FEW050 16/10 A3004 RMK AO2 SLP170 T01560100
                 $ =
2019-09-16 01:51 METAR KCON 160551Z AUTO 34003KT 10SM BKN042 OVC075 17/11 A3005 RMK AO2 SLP176
                 T01670106 10189 20144 53005 $ =
2019-09-16 00:51 METAR KCON 160451Z AUTO 33004KT 10SM BKN046 OVC080 17/11 A3004 RMK AO2 SLP173
                 T01670111 402560094 $ =
2019-09-15 23:51 METAR KCON 160351Z AUTO 33005KT 10SM OVC047 18/12 A3004 RMK AO2 SLP171 T01780117
                 $ =
2019-09-15 22:51 METAR KCON 160251Z AUTO 00000KT 10SM OVC050 16/12 A3004 RMK AO2 SLP171 T01610122
                 53004 $ =
2019-09-15 21:51 METAR KCON 160151Z AUTO 08004KT 10SM SCT055 15/12 A3003 RMK AO2 SLP168 T01500117
                 $ =
2019-09-15 20:51 METAR KCON 160051Z AUTO 25005KT 10SM CLR 17/12 A3003 RMK AO2 SLP167 T01720117 $
                 =
2019-09-15 19:51 METAR KCON 152351Z AUTO 22003KT 10SM CLR 19/12 A3003 RMK AO2 SLP167 T01890117
                 10256 20183 51003 $ =
2019-09-15 18:51 METAR KCON 152251Z AUTO 27004KT 10SM SCT100 BKN120 21/11 A3002 RMK AO2 SLP166
                 T02110106 $ =
2019-09-15 17:51 METAR KCON 152151Z AUTO 27006KT 10SM CLR 22/11 A3003 RMK AO2 SLP169 T02220106 $
                 =
2019-09-15 16:51 METAR KCON 152051Z AUTO 28009KT 10SM CLR 24/10 A3002 RMK AO2 SLP165 T02440100
                 56010 $ =
2019-09-15 15:51 METAR KCON 151951Z AUTO 29007KT 10SM CLR 25/10 A3002 RMK AO2 SLP166 T02500100 $
                 =
2019-09-15 14:51 METAR KCON 151851Z AUTO 29009KT 10SM CLR 24/10 A3004 RMK AO2 SLP172 T02390100 $
                 =
2019-09-15 13:51 METAR KCON 151751Z AUTO 27010KT 10SM CLR 25/11 A3005 RMK AO2 SLP175 T02500106
                 10250 20150 58019 $ =
2019-09-15 12:51 METAR KCON 151651Z AUTO 27009KT 10SM CLR 23/10 A3008 RMK AO2 SLP184 T02330100 $
                 =
2019-09-15 11:51 METAR KCON 151551Z AUTO 30006KT 10SM CLR 23/11 A3010 RMK AO2 SLP191 T02330111 $
                 =
2019-09-15 10:51 METAR KCON 151451Z AUTO 31007KT 10SM CLR 22/12 A3011 RMK AO2 SLP194 T02170117
                 58007 $ =
2019-09-15 09:51 METAR KCON 151351Z AUTO 27008KT 10SM CLR 20/13 A3012 RMK AO2 SLP198 T02000128 $
                 =

Support USWX by starting your Amazon purchase here.